Time;durP1;ratioP1;P1;durP2;ratioP2;P2;SDS_P1;SDS_P2;PMS_P1;PMS_P2;Temp;Humidity;BMP_temperature;BMP_pressure;BME280_temperature;BME280_humidity;BME280_pressure;Samples;Min_cycle;Max_cycle;Signal;HPM_P1;HPM_P2
2022/08/20 00:01:45;;;;;;;19.60;13.13;;;20.10;99.90;;;;;;5016845;28;20184;-65
2022/08/20 00:04:11;;;;;;;23.58;13.13;;;20.10;99.90;;;;;;4998707;28;20175;-65
2022/08/20 00:06:39;;;;;;;19.17;12.48;;;20.00;99.90;;;;;;5016202;28;20234;-65
2022/08/20 00:09:05;;;;;;;18.48;11.43;;;19.80;99.90;;;;;;4998513;28;20179;-65
2022/08/20 00:11:32;;;;;;;20.77;12.27;;;19.80;99.90;;;;;;5016230;28;20224;-65
2022/08/20 00:14:01;;;;;;;18.38;11.80;;;19.80;99.90;;;;;;5016124;28;20183;-65
2022/08/20 00:16:31;;;;;;;17.20;10.15;;;19.90;99.90;;;;;;5016182;28;20553;-66
2022/08/20 00:18:59;;;;;;;15.88;10.80;;;19.90;99.90;;;;;;5015989;28;20652;-65
2022/08/20 00:21:25;;;;;;;17.40;10.63;;;19.90;99.90;;;;;;5015994;28;20204;-65
2022/08/20 00:23:52;;;;;;;18.88;10.98;;;20.00;99.90;;;;;;5015875;28;20183;-66
2022/08/20 00:26:19;;;;;;;23.10;12.75;;;19.90;99.90;;;;;;5016003;28;20629;-66
2022/08/20 00:28:45;;;;;;;25.38;12.55;;;19.90;99.90;;;;;;5016245;28;20179;-65
2022/08/20 00:31:13;;;;;;;20.88;12.30;;;19.80;99.90;;;;;;5015841;28;20199;-66
2022/08/20 00:33:39;;;;;;;21.17;12.43;;;19.80;99.90;;;;;;4998116;28;20247;-66
2022/08/20 00:36:08;;;;;;;20.48;12.80;;;19.80;99.90;;;;;;5015694;28;20184;-66
2022/08/20 00:38:35;;;;;;;18.90;12.65;;;19.70;99.90;;;;;;5015411;28;20196;-66
2022/08/20 00:41:01;;;;;;;26.67;14.98;;;19.60;99.90;;;;;;5015655;28;20223;-66
2022/08/20 00:43:35;;;;;;;30.02;16.15;;;19.40;99.90;;;;;;5015719;28;20164;-66
2022/08/20 00:46:22;;;;;;;32.67;16.25;;;19.30;99.90;;;;;;5015744;28;20214;-66
2022/08/20 00:48:52;;;;;;;33.20;18.08;;;19.20;99.90;;;;;;5015568;28;20183;-66
2022/08/20 00:51:32;;;;;;;35.15;18.73;;;19.10;99.90;;;;;;5015271;28;20258;-66
2022/08/20 00:54:28;;;;;;;36.60;19.17;;;19.10;99.90;;;;;;4997375;28;20179;-67
2022/08/20 00:56:58;;;;;;;36.58;18.25;;;19.10;99.90;;;;;;5015340;28;20188;-66
2022/08/20 00:59:27;;;;;;;38.75;19.80;;;19.10;99.90;;;;;;4997665;28;20684;-66
2022/08/20 01:01:53;;;;;;;47.50;20.42;;;19.20;99.90;;;;;;5015526;28;20291;-67
2022/08/20 01:04:19;;;;;;;43.42;19.63;;;19.20;99.90;;;;;;5015511;28;20199;-66
2022/08/20 01:06:45;;;;;;;41.13;19.73;;;19.10;99.90;;;;;;4997552;28;20184;-66
2022/08/20 01:09:11;;;;;;;45.80;21.25;;;19.10;99.90;;;;;;5015076;28;20549;-66
2022/08/20 01:11:37;;;;;;;48.60;21.17;;;19.10;99.90;;;;;;4997633;28;20681;-66
2022/08/20 01:17:01;;;;;;;39.65;19.98;;;18.90;99.90;;;;;;5015345;28;20171;-66
2022/08/20 01:19:41;;;;;;;49.08;20.15;;;18.80;99.90;;;;;;5015288;28;20274;-66
2022/08/20 01:25:00;;;;;;;42.83;20.42;;;18.90;99.90;;;;;;5015294;28;20225;-66
2022/08/20 01:27:26;;;;;;;24.85;11.00;;;18.90;99.90;;;;;;5015520;28;20222;-66
2022/08/20 01:29:53;;;;;;;9.43;5.85;;;18.60;99.90;;;;;;4997275;28;20188;-66
2022/08/20 01:32:19;;;;;;;6.00;4.05;;;18.30;99.90;;;;;;5014861;28;20199;-67
2022/08/20 01:34:44;;;;;;;5.10;3.28;;;18.10;99.90;;;;;;4997358;28;20176;-66
2022/08/20 01:37:10;;;;;;;5.55;3.90;;;18.00;99.90;;;;;;5014969;28;20203;-66
2022/08/20 01:39:36;;;;;;;4.22;3.20;;;18.10;99.90;;;;;;5014729;28;20204;-66
2022/08/20 01:42:02;;;;;;;5.35;3.28;;;18.00;99.90;;;;;;5015040;28;20665;-66
2022/08/20 01:44:29;;;;;;;4.82;3.30;;;17.90;99.90;;;;;;5015344;28;20176;-66
2022/08/20 01:46:55;;;;;;;4.72;3.47;;;17.80;99.90;;;;;;5016259;28;20179;-66
2022/08/20 01:49:27;;;;;;;5.55;3.63;;;17.80;99.90;;;;;;4997959;28;20180;-66
2022/08/20 01:51:56;;;;;;;4.97;3.50;;;17.80;99.90;;;;;;5015461;28;20226;-66
2022/08/20 01:54:23;;;;;;;7.65;3.50;;;17.90;99.90;;;;;;4997386;28;20263;-66
2022/08/20 01:57:05;;;;;;;5.57;3.40;;;17.90;99.90;;;;;;4996963;28;20222;-66
2022/08/20 01:59:31;;;;;;;4.65;3.35;;;18.00;99.90;;;;;;5014634;28;20565;-66
2022/08/20 02:01:58;;;;;;;6.32;3.88;;;17.90;99.90;;;;;;4997061;28;20202;-66
2022/08/20 02:04:25;;;;;;;5.90;4.00;;;18.00;99.90;;;;;;4996789;28;20180;-66
2022/08/20 02:06:57;;;;;;;5.00;3.47;;;17.90;99.90;;;;;;4996197;28;20183;-66
2022/08/20 02:09:28;;;;;;;6.07;4.18;;;18.00;99.90;;;;;;5029273;28;20307;-66
2022/08/20 02:11:55;;;;;;;8.30;4.45;;;18.00;99.90;;;;;;5014616;28;20581;-66
2022/08/20 02:14:21;;;;;;;7.13;3.88;;;18.00;99.90;;;;;;4996679;28;20180;-66
2022/08/20 02:16:48;;;;;;;6.43;4.50;;;18.00;99.90;;;;;;5014305;28;20176;-66
2022/08/20 02:19:30;;;;;;;6.43;4.60;;;18.00;99.90;;;;;;5014064;28;20195;-66
2022/08/20 02:22:01;;;;;;;7.22;4.65;;;18.00;99.90;;;;;;4996341;28;20265;-66
2022/08/20 02:24:27;;;;;;;7.70;5.28;;;17.90;99.90;;;;;;4996229;28;20175;-66
2022/08/20 02:26:53;;;;;;;8.75;5.28;;;18.00;99.90;;;;;;5013888;28;20696;-66
2022/08/20 02:29:19;;;;;;;8.90;5.30;;;18.00;99.90;;;;;;5013939;28;20253;-66
2022/08/20 02:31:45;;;;;;;8.43;5.85;;;17.90;99.90;;;;;;5014001;28;20192;-66
2022/08/20 02:34:13;;;;;;;9.55;5.82;;;17.90;99.90;;;;;;5014241;28;20230;-66
2022/08/20 02:36:41;;;;;;;11.75;6.75;;;18.00;99.90;;;;;;4996265;28;20282;-66
2022/08/20 02:39:11;;;;;;;9.43;5.88;;;18.00;99.90;;;;;;5013552;28;20195;-66
2022/08/20 02:41:38;;;;;;;11.68;7.32;;;18.00;99.90;;;;;;5014038;28;20198;-66
2022/08/20 02:44:05;;;;;;;12.05;6.90;;;18.10;99.90;;;;;;5013638;28;20183;-66
2022/08/20 02:46:32;;;;;;;12.48;7.80;;;18.10;99.90;;;;;;5014072;28;20195;-66
2022/08/20 02:48:58;;;;;;;12.43;7.03;;;18.10;99.90;;;;;;4996193;28;20182;-66
2022/08/20 02:51:24;;;;;;;14.77;7.95;;;18.20;99.90;;;;;;5013598;28;20196;-67
2022/08/20 02:53:50;;;;;;;15.18;9.20;;;18.20;99.90;;;;;;5013692;28;20202;-67
2022/08/20 02:56:17;;;;;;;15.32;9.00;;;18.20;99.90;;;;;;5013815;28;20620;-66
2022/08/20 02:58:43;;;;;;;18.77;10.38;;;18.30;99.90;;;;;;5013607;28;20253;-66
2022/08/20 03:01:14;;;;;;;19.30;11.93;;;18.20;99.90;;;;;;4996536;28;20199;-66
2022/08/20 03:03:41;;;;;;;26.70;14.18;;;18.20;99.90;;;;;;5013934;28;20160;-66
2022/08/20 03:06:08;;;;;;;26.20;14.60;;;18.10;99.90;;;;;;4996534;28;20183;-66
2022/08/20 03:08:35;;;;;;;31.67;16.48;;;18.10;99.90;;;;;;4996281;28;20183;-66
2022/08/20 03:11:02;;;;;;;35.53;17.90;;;18.10;99.90;;;;;;5013736;28;20219;-67
2022/08/20 03:13:28;;;;;;;38.10;18.17;;;18.10;99.90;;;;;;5014047;28;20184;-67
2022/08/20 03:15:56;;;;;;;35.40;17.30;;;18.10;99.90;;;;;;4996099;28;20184;-66
2022/08/20 03:18:25;;;;;;;39.38;19.08;;;18.10;99.90;;;;;;5016336;28;20661;-66
2022/08/20 03:20:51;;;;;;;41.25;19.60;;;18.10;99.90;;;;;;5017666;28;20266;-66
2022/08/20 03:23:19;;;;;;;45.92;20.50;;;18.20;99.90;;;;;;5017230;28;20180;-67
2022/08/20 03:25:46;;;;;;;41.63;21.25;;;18.10;99.90;;;;;;4999390;28;20159;-66
2022/08/20 03:28:13;;;;;;;53.88;23.65;;;18.20;99.90;;;;;;5017183;28;20251;-66
2022/08/20 03:30:40;;;;;;;54.20;24.38;;;18.20;99.90;;;;;;5017157;28;20290;-66
2022/08/20 03:33:07;;;;;;;50.40;23.92;;;18.10;99.90;;;;;;5016965;28;20172;-66
2022/08/20 03:35:34;;;;;;;61.72;26.77;;;18.20;99.90;;;;;;5017034;28;20199;-66
2022/08/20 03:38:00;;;;;;;65.53;27.70;;;18.20;99.90;;;;;;4999246;28;20184;-66
2022/08/20 03:40:29;;;;;;;61.78;27.85;;;18.20;99.90;;;;;;5016507;28;20237;-66
2022/08/20 03:42:55;;;;;;;61.70;28.45;;;18.20;99.90;;;;;;5016660;28;20251;-66
2022/08/20 03:45:22;;;;;;;67.22;30.13;;;18.20;99.90;;;;;;4999189;28;20206;-66
2022/08/20 03:47:50;;;;;;;68.25;29.42;;;18.10;99.90;;;;;;5016777;28;20175;-66
2022/08/20 03:50:19;;;;;;;63.92;30.23;;;18.10;99.90;;;;;;5016950;28;20163;-66
2022/08/20 03:52:45;;;;;;;69.18;30.33;;;18.10;99.90;;;;;;4998889;28;20287;-66
2022/08/20 03:55:11;;;;;;;68.88;30.85;;;18.10;99.90;;;;;;4998652;28;20645;-66
2022/08/20 03:57:45;;;;;;;79.97;33.28;;;18.10;99.90;;;;;;5016393;28;20195;-66
2022/08/20 04:00:14;;;;;;;76.05;32.38;;;18.10;99.90;;;;;;5016682;28;20603;-66
2022/08/20 04:02:40;;;;;;;81.63;34.40;;;18.00;99.90;;;;;;5016642;28;20602;-66
2022/08/20 04:05:06;;;;;;;70.80;32.85;;;18.00;99.90;;;;;;5016326;28;20180;-66
2022/08/20 04:07:32;;;;;;;81.32;34.40;;;18.10;99.90;;;;;;5016305;28;20180;-66
2022/08/20 04:09:58;;;;;;;84.75;32.65;;;18.10;99.90;;;;;;4998599;28;20535;-66
2022/08/20 04:12:24;;;;;;;80.07;32.72;;;18.10;99.90;;;;;;5016257;28;20202;-66
2022/08/20 04:14:51;;;;;;;87.80;35.00;;;18.00;99.90;;;;;;5016183;28;20234;-66
2022/08/20 04:17:19;;;;;;;86.38;35.05;;;18.00;99.90;;;;;;5016090;28;20230;-66
2022/08/20 04:19:46;;;;;;;74.60;32.75;;;18.00;99.90;;;;;;5017392;28;20584;-66
2022/08/20 04:22:12;;;;;;;82.32;34.25;;;18.00;99.90;;;;;;5016008;28;20188;-66
2022/08/20 04:24:39;;;;;;;75.63;33.00;;;18.10;99.90;;;;;;5015765;28;20707;-66
2022/08/20 04:27:07;;;;;;;86.72;36.13;;;18.10;99.90;;;;;;5015893;28;20629;-66
2022/08/20 04:29:33;;;;;;;81.57;34.70;;;18.10;99.90;;;;;;5015051;28;20176;-66
2022/08/20 04:32:00;;;;;;;80.20;34.15;;;18.20;99.90;;;;;;5015754;28;20192;-66
2022/08/20 04:34:27;;;;;;;75.20;32.63;;;18.10;99.90;;;;;;5015684;28;20185;-66
2022/08/20 04:36:53;;;;;;;85.10;34.35;;;18.10;99.90;;;;;;5015642;28;20188;-66
2022/08/20 04:39:19;;;;;;;81.20;34.65;;;18.10;99.90;;;;;;4997901;28;20192;-66
2022/08/20 04:41:44;;;;;;;84.20;35.10;;;18.10;99.90;;;;;;5015564;28;20188;-66
2022/08/20 04:44:10;;;;;;;85.03;36.25;;;18.10;99.90;;;;;;5015563;28;20652;-66
2022/08/20 04:46:37;;;;;;;85.47;34.28;;;18.10;99.90;;;;;;4997813;28;20175;-66
2022/08/20 04:49:05;;;;;;;84.22;33.70;;;18.10;99.90;;;;;;5015971;28;20233;-66
2022/08/20 04:51:32;;;;;;;77.65;33.88;;;18.10;99.90;;;;;;4997729;28;20204;-66
2022/08/20 04:53:59;;;;;;;84.80;33.38;;;18.10;99.90;;;;;;4997785;28;20192;-66
2022/08/20 04:56:27;;;;;;;76.05;32.58;;;18.10;99.90;;;;;;5015180;28;20256;-66
2022/08/20 04:58:55;;;;;;;82.80;35.25;;;18.20;99.90;;;;;;4997515;28;20235;-66
2022/08/20 05:01:24;;;;;;;90.50;34.65;;;18.20;99.90;;;;;;5015234;28;20322;-66
2022/08/20 05:03:53;;;;;;;90.95;36.10;;;18.10;99.90;;;;;;5015034;28;20176;-66
2022/08/20 05:06:20;;;;;;;96.60;36.30;;;18.10;99.90;;;;;;5015012;28;20164;-66
2022/08/20 05:08:46;;;;;;;82.50;33.83;;;18.10;99.90;;;;;;5015244;28;20537;-66
2022/08/20 05:11:15;;;;;;;85.82;35.70;;;18.20;99.90;;;;;;5014653;28;20283;-67
2022/08/20 05:13:41;;;;;;;97.32;39.67;;;18.20;99.90;;;;;;4997258;28;20184;-66
2022/08/20 05:16:08;;;;;;;97.18;38.72;;;18.20;99.90;;;;;;5015216;28;20264;-66
2022/08/20 05:18:34;;;;;;;81.97;35.40;;;18.20;99.90;;;;;;5015266;28;20606;-68
2022/08/20 05:21:07;;;;;;;93.60;37.25;;;18.20;99.90;;;;;;5015219;28;20203;-66
2022/08/20 05:23:41;;;;;;;95.63;37.90;;;18.20;99.90;;;;;;4997310;28;20165;-67
2022/08/20 05:26:11;;;;;;;89.47;36.22;;;18.20;99.90;;;;;;5014767;28;20163;-68
2022/08/20 05:28:38;;;;;;;99.22;37.65;;;18.20;99.90;;;;;;5015089;28;20157;-68
2022/08/20 05:31:08;;;;;;;99.50;37.90;;;18.30;99.90;;;;;;5014981;28;20199;-68
2022/08/20 05:33:35;;;;;;;90.63;34.35;;;18.30;99.90;;;;;;5014890;28;20167;-68
2022/08/20 05:36:03;;;;;;;99.88;36.00;;;18.30;99.90;;;;;;5014723;28;20176;-68
2022/08/20 05:38:29;;;;;;;95.47;38.50;;;18.30;99.90;;;;;;4997064;28;20558;-68
2022/08/20 05:40:55;;;;;;;101.88;37.75;;;18.30;99.90;;;;;;5014336;28;20190;-68
2022/08/20 05:43:21;;;;;;;100.25;38.42;;;18.30;99.90;;;;;;4997059;28;20180;-68
2022/08/20 05:45:51;;;;;;;88.85;36.70;;;18.40;99.90;;;;;;5014954;28;20156;-68
2022/08/20 05:48:21;;;;;;;92.50;39.97;;;18.50;99.90;;;;;;5014554;28;20171;-68
2022/08/20 05:50:49;;;;;;;95.75;37.85;;;18.50;99.90;;;;;;5015276;28;20241;-68
2022/08/20 05:53:15;;;;;;;93.78;36.78;;;18.60;99.90;;;;;;4997465;28;20183;-66
2022/08/20 05:55:42;;;;;;;103.15;38.65;;;18.50;99.90;;;;;;5015174;28;20180;-66
2022/08/20 05:58:22;;;;;;;98.97;39.22;;;18.50;99.90;;;;;;5014501;28;20156;-66
2022/08/20 06:00:49;;;;;;;103.65;39.17;;;18.50;99.90;;;;;;5014514;28;20286;-67
2022/08/20 06:06:00;;;;;;;92.15;37.22;;;18.50;99.90;;;;;;5014825;28;20248;-66
2022/08/20 06:08:26;;;;;;;97.57;38.92;;;18.60;99.90;;;;;;5014067;28;20262;-66
2022/08/20 06:10:52;;;;;;;96.45;37.88;;;18.70;99.90;;;;;;5014195;28;20598;-66
2022/08/20 06:13:17;;;;;;;101.32;39.53;;;18.70;99.90;;;;;;4996628;28;20222;-66
2022/08/20 06:15:43;;;;;;;109.18;41.25;;;18.80;99.90;;;;;;5014628;28;20182;-66
2022/08/20 06:18:09;;;;;;;96.05;40.63;;;18.60;99.90;;;;;;5014293;28;20214;-66
2022/08/20 06:20:36;;;;;;;107.13;40.75;;;18.70;99.90;;;;;;4996287;28;20761;-66
2022/08/20 06:23:04;;;;;;;99.07;38.65;;;18.70;99.90;;;;;;5014121;28;20175;-67
2022/08/20 06:25:33;;;;;;;98.68;38.92;;;18.70;99.90;;;;;;5013929;28;20172;-68
2022/08/20 06:28:01;;;;;;;103.35;42.08;;;18.70;99.90;;;;;;4996092;28;20184;-68
2022/08/20 06:30:27;;;;;;;109.05;42.45;;;18.70;99.90;;;;;;5013889;28;20183;-68
2022/08/20 06:32:53;;;;;;;99.05;39.58;;;18.70;99.90;;;;;;4996413;28;20222;-68
2022/08/20 06:35:20;;;;;;;96.72;39.17;;;18.70;99.90;;;;;;5014117;28;20633;-68
2022/08/20 06:37:46;;;;;;;97.28;39.63;;;18.70;99.90;;;;;;5013556;28;20192;-68
2022/08/20 06:40:21;;;;;;;102.18;40.90;;;18.70;99.90;;;;;;4995810;28;20578;-67
2022/08/20 06:42:48;;;;;;;99.30;39.67;;;18.70;99.90;;;;;;5013739;28;20589;-67
2022/08/20 06:45:23;;;;;;;109.13;40.97;;;18.70;99.90;;;;;;5013673;28;20178;-67
2022/08/20 06:47:50;;;;;;;105.85;39.75;;;18.60;99.90;;;;;;5014015;28;20151;-66
2022/08/20 06:50:25;;;;;;;104.10;41.95;;;18.60;99.90;;;;;;5014008;28;20176;-67
2022/08/20 06:52:51;;;;;;;96.75;38.65;;;18.60;99.90;;;;;;4998431;28;20189;-68
2022/08/20 06:55:17;;;;;;;82.30;34.58;;;18.60;99.90;;;;;;5017759;28;20176;-67
2022/08/20 06:57:43;;;;;;;94.93;37.67;;;18.50;99.90;;;;;;5017630;28;20199;-68
2022/08/20 07:00:18;;;;;;;103.20;39.00;;;18.50;99.90;;;;;;5017653;28;20203;-68
2022/08/20 07:02:45;;;;;;;103.07;39.60;;;18.50;99.90;;;;;;4999964;28;20191;-68
2022/08/20 07:05:11;;;;;;;108.60;41.00;;;18.50;99.90;;;;;;5018438;28;20632;-67
2022/08/20 07:07:38;;;;;;;103.10;39.75;;;18.30;99.90;;;;;;5017688;28;20191;-68
2022/08/20 07:10:09;;;;;;;123.88;40.80;;;18.40;99.90;;;;;;5017044;28;20649;-68
2022/08/20 07:12:36;;;;;;;134.60;42.63;;;18.40;99.90;;;;;;4999529;28;20199;-68
2022/08/20 07:15:07;;;;;;;120.75;39.75;;;18.40;99.90;;;;;;5017477;28;20182;-67
2022/08/20 07:17:33;;;;;;;91.97;36.50;;;18.40;99.90;;;;;;4999502;28;20199;-67
2022/08/20 07:20:07;;;;;;;89.07;33.38;;;18.20;99.90;;;;;;4999312;28;20675;-67
2022/08/20 07:22:36;;;;;;;86.45;33.88;;;18.10;99.90;;;;;;4999228;28;20200;-67
2022/08/20 07:25:07;;;;;;;94.25;36.28;;;18.10;99.90;;;;;;5016689;28;20176;-67
2022/08/20 07:27:33;;;;;;;83.50;34.63;;;18.10;99.90;;;;;;5017728;28;20164;-66
2022/08/20 07:32:44;;;;;;;89.85;33.95;;;18.10;99.90;;;;;;5017125;28;20668;-67
2022/08/20 07:35:14;;;;;;;93.90;34.65;;;18.10;99.90;;;;;;5017270;28;20184;-69
2022/08/20 07:37:43;;;;;;;78.93;33.33;;;18.10;99.90;;;;;;4980535;28;20567;-68
2022/08/20 07:40:13;;;;;;;96.88;34.63;;;18.10;99.90;;;;;;4997298;28;20538;-68
2022/08/20 07:42:39;;;;;;;87.72;33.40;;;18.30;99.90;;;;;;4979725;28;20665;-68
2022/08/20 07:45:13;;;;;;;82.40;33.13;;;18.40;99.90;;;;;;4997231;28;20172;-68
2022/08/20 07:47:40;;;;;;;75.68;32.92;;;18.40;99.90;;;;;;4979653;28;20176;-68
2022/08/20 07:50:08;;;;;;;72.88;29.77;;;18.50;99.90;;;;;;5012155;28;20181;-66
2022/08/20 07:52:34;;;;;;;78.57;31.00;;;18.60;99.90;;;;;;4997290;28;20204;-66
2022/08/20 07:55:02;;;;;;;88.07;34.17;;;18.50;99.90;;;;;;4979293;28;20704;-66
2022/08/20 07:57:27;;;;;;;90.60;35.30;;;18.50;99.90;;;;;;4979345;28;20200;-66
2022/08/20 07:59:53;;;;;;;101.28;36.78;;;18.50;99.90;;;;;;4996853;28;20270;-66
2022/08/20 08:02:19;;;;;;;87.60;35.78;;;18.70;99.90;;;;;;4997701;28;20193;-66
2022/08/20 08:04:45;;;;;;;99.90;37.20;;;18.90;99.90;;;;;;4995823;28;20239;-65
2022/08/20 08:07:11;;;;;;;101.50;39.45;;;18.90;99.90;;;;;;5008488;28;20676;-65
2022/08/20 08:09:38;;;;;;;97.22;36.95;;;19.00;99.90;;;;;;5019184;28;20176;-65
2022/08/20 08:12:04;;;;;;;101.78;40.80;;;19.10;99.90;;;;;;5017523;28;20200;-65
2022/08/20 08:14:32;;;;;;;84.75;37.53;;;19.30;99.90;;;;;;5001097;28;20532;-67
2022/08/20 08:17:03;;;;;;;105.63;38.53;;;19.20;99.90;;;;;;5017987;28;20255;-67
2022/08/20 08:19:35;;;;;;;68.28;33.25;;;19.10;99.90;;;;;;5016611;28;20736;-67
2022/08/20 08:22:00;;;;;;;66.43;31.00;;;19.10;99.90;;;;;;4999138;28;20195;-68
2022/08/20 08:24:26;;;;;;;60.92;28.92;;;19.00;99.90;;;;;;5016870;28;20222;-68
2022/08/20 08:26:52;;;;;;;60.95;28.63;;;18.90;99.90;;;;;;5017106;28;20180;-68
2022/08/20 08:29:18;;;;;;;65.88;29.55;;;18.80;99.90;;;;;;4998667;28;20184;-67
2022/08/20 08:31:43;;;;;;;65.32;30.02;;;18.90;99.90;;;;;;5016004;28;20226;-69
2022/08/20 08:34:10;;;;;;;61.72;30.30;;;19.10;99.90;;;;;;5016099;28;20172;-69
2022/08/20 08:36:38;;;;;;;63.55;30.20;;;19.30;99.90;;;;;;4998404;28;20187;-69
2022/08/20 08:39:04;;;;;;;69.03;32.28;;;19.10;99.90;;;;;;5016400;28;20249;-69
2022/08/20 08:41:47;;;;;;;65.32;31.25;;;19.20;99.90;;;;;;5017382;28;20187;-69
2022/08/20 08:44:21;;;;;;;69.07;31.10;;;19.10;99.90;;;;;;5016071;28;20164;-69
2022/08/20 08:46:52;;;;;;;48.85;26.13;;;19.30;99.90;;;;;;5016340;28;20175;-67
2022/08/20 08:49:24;;;;;;;50.08;25.70;;;19.20;99.90;;;;;;5015739;28;20690;-67
2022/08/20 08:51:58;;;;;;;51.25;27.17;;;19.20;99.90;;;;;;5015644;28;20191;-67
2022/08/20 08:54:30;;;;;;;48.10;25.98;;;19.50;99.90;;;;;;5015835;28;20174;-68
2022/08/20 08:56:58;;;;;;;47.67;26.10;;;19.50;99.90;;;;;;4998161;28;20230;-69
2022/08/20 08:59:26;;;;;;;50.50;28.50;;;19.60;99.90;;;;;;4997983;28;20200;-69
2022/08/20 09:01:55;;;;;;;51.22;27.88;;;19.90;99.90;;;;;;5015566;28;20250;-69
2022/08/20 09:04:22;;;;;;;48.90;27.35;;;19.80;99.90;;;;;;5017543;28;20176;-69
2022/08/20 09:06:52;;;;;;;45.70;25.15;;;19.70;99.90;;;;;;5019963;28;20176;-67
2022/08/20 09:09:26;;;;;;;43.20;25.27;;;19.80;99.90;;;;;;5017419;28;20178;-67
2022/08/20 09:12:07;;;;;;;44.83;24.60;;;19.80;99.90;;;;;;4999253;28;20201;-67
2022/08/20 09:14:33;;;;;;;50.35;28.15;;;19.90;99.90;;;;;;5015245;28;20167;-67
2022/08/20 09:16:59;;;;;;;56.28;28.65;;;20.20;99.90;;;;;;5016091;28;20306;-67
2022/08/20 09:19:25;;;;;;;57.92;30.35;;;20.40;99.90;;;;;;4997676;28;20245;-67
2022/08/20 09:21:50;;;;;;;46.08;27.00;;;20.60;99.90;;;;;;4997963;28;20285;-65
2022/08/20 09:24:16;;;;;;;49.50;30.08;;;20.90;99.90;;;;;;5015014;28;20198;-67
2022/08/20 09:26:42;;;;;;;46.42;28.35;;;20.40;99.90;;;;;;5014569;28;20176;-67
2022/08/20 09:29:08;;;;;;;43.92;25.42;;;20.40;99.90;;;;;;4997341;28;20625;-67
2022/08/20 09:31:36;;;;;;;42.47;25.73;;;20.30;99.90;;;;;;4997316;28;20254;-68
2022/08/20 09:34:02;;;;;;;38.72;26.05;;;20.50;99.90;;;;;;5015283;28;20222;-67
2022/08/20 09:36:27;;;;;;;37.83;26.27;;;20.30;99.90;;;;;;5014941;28;20257;-67
2022/08/20 09:38:53;;;;;;;39.03;24.77;;;20.40;99.90;;;;;;5014941;28;20204;-67
2022/08/20 09:41:20;;;;;;;35.22;23.75;;;20.40;99.90;;;;;;4996814;28;20204;-67
2022/08/20 09:43:45;;;;;;;36.80;22.80;;;20.30;99.90;;;;;;5014621;28;20173;-67
2022/08/20 09:46:11;;;;;;;29.58;20.73;;;20.50;99.90;;;;;;5014551;28;20172;-67
2022/08/20 09:48:37;;;;;;;28.00;20.88;;;20.50;99.90;;;;;;5014623;28;20164;-67
2022/08/20 09:51:03;;;;;;;31.92;20.00;;;20.50;99.90;;;;;;5014639;28;20566;-67
2022/08/20 09:53:30;;;;;;;27.70;19.40;;;20.50;99.90;;;;;;5014304;28;20160;-67
2022/08/20 09:55:58;;;;;;;26.42;19.30;;;20.30;99.90;;;;;;5013871;28;20183;-67
2022/08/20 09:58:47;;;;;;;31.92;20.40;;;20.30;99.90;;;;;;5014721;28;20175;-66
2022/08/20 10:01:15;;;;;;;27.80;20.25;;;20.50;99.90;;;;;;5014502;28;20295;-66
2022/08/20 10:03:42;;;;;;;26.20;19.73;;;20.60;99.90;;;;;;4996561;28;20184;-66
2022/08/20 10:06:10;;;;;;;26.50;18.55;;;20.70;99.90;;;;;;4997414;28;20174;-72
2022/08/20 10:08:36;;;;;;;19.35;15.20;;;21.00;99.90;;;;;;5015418;28;20230;-72
2022/08/20 10:11:03;;;;;;;16.70;13.30;;;21.30;99.90;;;;;;4997197;28;20203;-72
2022/08/20 10:13:28;;;;;;;13.77;11.65;;;21.50;99.90;;;;;;5014506;28;20570;-67
2022/08/20 10:15:54;;;;;;;13.85;11.18;;;21.70;99.90;;;;;;5014315;28;20250;-66
2022/08/20 10:18:20;;;;;;;11.68;10.05;;;21.80;99.90;;;;;;5014458;28;20176;-67
2022/08/20 10:20:45;;;;;;;10.88;9.52;;;21.80;99.90;;;;;;5013782;28;20774;-67
2022/08/20 10:23:11;;;;;;;12.60;9.98;;;21.70;99.90;;;;;;5013775;28;20645;-66
2022/08/20 10:25:37;;;;;;;13.30;11.45;;;21.50;99.90;;;;;;5013539;28;20716;-67
2022/08/20 10:28:04;;;;;;;17.45;14.00;;;21.10;99.90;;;;;;5013028;28;20186;-66
2022/08/20 10:30:30;;;;;;;16.17;14.32;;;20.80;99.90;;;;;;5013647;28;20250;-66
2022/08/20 10:32:55;;;;;;;18.10;15.23;;;20.70;99.90;;;;;;4995982;28;20329;-66
2022/08/20 10:35:22;;;;;;;16.67;13.90;;;20.80;99.90;;;;;;5014115;28;20182;-66
2022/08/20 10:37:48;;;;;;;18.63;14.98;;;20.80;99.90;;;;;;5013530;28;20219;-66
2022/08/20 10:40:14;;;;;;;17.55;14.43;;;21.00;99.90;;;;;;4995615;28;20223;-66
2022/08/20 10:42:42;;;;;;;20.38;14.65;;;21.30;99.90;;;;;;5013460;28;20187;-66
2022/08/20 10:45:13;;;;;;;17.58;13.85;;;21.50;99.90;;;;;;5013505;28;20168;-66
2022/08/20 10:47:39;;;;;;;14.88;12.05;;;21.90;99.90;;;;;;5013877;28;20164;-66
2022/08/20 10:50:08;;;;;;;14.20;12.32;;;22.20;99.90;;;;;;5013466;28;20203;-66
2022/08/20 10:52:34;;;;;;;17.67;11.60;;;22.40;99.90;;;;;;4996073;28;20564;-66
2022/08/20 10:55:00;;;;;;;24.38;19.63;;;22.30;99.90;;;;;;5014046;28;20183;-66
2022/08/20 10:57:29;;;;;;;29.60;22.45;;;22.20;99.90;;;;;;4995602;28;20195;-66
2022/08/20 10:59:57;;;;;;;34.75;25.35;;;22.00;99.90;;;;;;5013715;28;20195;-67
2022/08/20 11:02:24;;;;;;;37.92;29.40;;;21.90;99.90;;;;;;5013417;28;20206;-66
2022/08/20 11:04:50;;;;;;;40.25;30.17;;;21.90;99.90;;;;;;5013692;28;20179;-66
2022/08/20 11:07:37;;;;;;;35.75;29.25;;;22.20;99.90;;;;;;4995730;28;20187;-67
2022/08/20 11:10:05;;;;;;;40.53;30.50;;;22.60;99.90;;;;;;4995619;28;20218;-67
2022/08/20 11:12:31;;;;;;;37.33;29.27;;;22.80;99.90;;;;;;5013502;28;20204;-76
2022/08/20 11:14:57;;;;;;;40.40;30.55;;;22.80;99.90;;;;;;4996945;28;20180;-76
2022/08/20 11:17:25;;;;;;;38.15;32.03;;;22.40;99.90;;;;;;4996223;28;20645;-76
2022/08/20 11:19:52;;;;;;;38.58;31.08;;;22.50;99.90;;;;;;4996179;28;20283;-75
2022/08/20 11:22:18;;;;;;;39.47;30.95;;;22.70;99.90;;;;;;5014335;28;20195;-76
2022/08/20 11:24:44;;;;;;;37.42;29.08;;;23.00;99.90;;;;;;5014104;28;20172;-76
2022/08/20 11:27:24;;;;;;;39.67;32.13;;;23.00;99.90;;;;;;5013607;28;20207;-75
2022/08/20 11:29:51;;;;;;;37.45;30.02;;;22.90;99.90;;;;;;4996253;28;20175;-76
2022/08/20 11:32:17;;;;;;;41.92;30.77;;;22.60;99.90;;;;;;4996239;28;20207;-76
2022/08/20 11:34:43;;;;;;;39.45;30.52;;;22.50;99.90;;;;;;5013882;28;20615;-76
2022/08/20 11:37:10;;;;;;;42.10;31.27;;;22.30;99.90;;;;;;5006093;28;20219;-77
2022/08/20 11:39:36;;;;;;;41.35;32.15;;;22.10;99.90;;;;;;4979991;28;20211;-77
2022/08/20 11:42:02;;;;;;;37.05;29.08;;;22.00;99.90;;;;;;4997680;28;20188;-77
2022/08/20 11:44:28;;;;;;;34.08;27.58;;;21.90;99.90;;;;;;4998187;28;20258;-77
2022/08/20 11:46:58;;;;;;;36.67;27.60;;;21.90;99.90;;;;;;4998930;28;20177;-76
2022/08/20 11:49:24;;;;;;;35.13;27.88;;;21.90;99.90;;;;;;5013304;28;20188;-76
2022/08/20 11:51:50;;;;;;;41.17;29.33;;;22.00;99.90;;;;;;4997873;28;20197;-77
2022/08/20 11:54:16;;;;;;;33.97;26.95;;;22.00;99.90;;;;;;5013371;28;20211;-77
2022/08/20 11:56:42;;;;;;;37.00;27.13;;;21.90;99.90;;;;;;4980230;28;20231;-77
2022/08/20 11:59:07;;;;;;;34.60;26.52;;;22.00;99.90;;;;;;4998022;28;20200;-77
2022/08/20 12:01:33;;;;;;;30.92;24.52;;;22.20;99.90;;;;;;4997982;28;20271;-77
2022/08/20 12:03:59;;;;;;;32.22;25.40;;;22.10;99.90;;;;;;5012886;28;20575;-77
2022/08/20 12:06:25;;;;;;;32.70;23.65;;;22.00;99.90;;;;;;5014878;28;20194;-77
2022/08/20 12:08:51;;;;;;;36.00;25.33;;;22.00;99.90;;;;;;5017761;28;20595;-76
2022/08/20 12:11:16;;;;;;;29.80;21.90;;;22.00;99.90;;;;;;5000715;28;20207;-78
2022/08/20 12:13:43;;;;;;;30.42;23.00;;;22.20;99.90;;;;;;5000839;28;20645;-78
2022/08/20 12:16:08;;;;;;;32.10;23.10;;;22.60;99.90;;;;;;5000867;28;20219;-77
2022/08/20 12:18:34;;;;;;;33.50;21.83;;;22.90;99.90;;;;;;4998858;28;20717;-76
2022/08/20 12:21:00;;;;;;;28.48;21.30;;;23.30;99.90;;;;;;5015820;28;20219;-67
2022/08/20 12:23:26;;;;;;;28.02;21.02;;;23.70;99.90;;;;;;5016218;28;20179;-67
2022/08/20 12:25:52;;;;;;;26.17;20.17;;;24.20;99.90;;;;;;5016251;28;20222;-66
2022/08/20 12:28:18;;;;;;;24.98;18.52;;;24.20;99.90;;;;;;5016403;28;20222;-66
2022/08/20 12:30:43;;;;;;;21.92;16.88;;;24.40;99.90;;;;;;5016632;28;20162;-66
2022/08/20 12:33:10;;;;;;;21.40;17.25;;;24.30;99.90;;;;;;5016624;28;20167;-66
2022/08/20 12:35:36;;;;;;;21.90;17.75;;;23.90;99.90;;;;;;4998797;28;20621;-72
2022/08/20 12:38:05;;;;;;;26.20;18.67;;;23.60;99.90;;;;;;4998884;28;20242;-66
2022/08/20 12:40:31;;;;;;;25.88;17.80;;;23.30;99.90;;;;;;5016476;28;20227;-65
2022/08/20 12:42:57;;;;;;;21.02;15.52;;;23.00;99.90;;;;;;5016213;28;20176;-66